• Join FlightAware (Why Join?)
  • Login
  • US Flag 
06:18AM EDT


 

Airport Tracker/Info


-or-


 

Live Flight TrackerFlight Track Log ✈ SKW5550 ✈ 10-Oct-2013 ✈ KCOD - KDEN

Flight Track Log - Related Links

Times and Time Zones

All times are in EDT time to prevent confusion due to time zone crossing. See the SKW5550 flight status page for this flight to view local times or setup timezone preferences in your user account.

Time Position Orientation Groundspeed Altitude Reporting Facility
EDT Latitude Longitude Course Direction KTS MPH feet Rate Location/Type
10:50AM 44.0289 -108.5255 157° South  Level Estimated
10:50AM 44.5061 -109.0539 144° Southeast 152 175 6,200  Level Salt Lake Center
10:51AM 43.9278 -108.4860 164° South  Level FlightAware Approximate
10:51AM 44.4650 -109.0683 194° South 228 262 7,900  Level Salt Lake Center
10:52AM 43.8430 -108.4000 156° South  Level Estimated
10:52AM 44.5125 -109.0078 42° Northeast 240 276 10,600  Level Salt Lake Center
10:53AM 43.7581 -108.3142 142° Southeast  Level Estimated
10:53AM 44.5244 -108.9103 80° East 272 313 12,000  Level Salt Lake Center
10:54AM 43.6587 -108.2672 161° South  Level FlightAware Approximate
10:54AM 44.4528 -108.8536 151° Southeast 289 333 14,400  Level Salt Lake Center
10:55AM 43.5742 -108.1811 144° Southeast  Level Estimated
10:55AM 44.3789 -108.7875 147° Southeast 309 356 15,600  Level Salt Lake Center
10:56AM 44.2989 -108.7128 146° Southeast 332 382 17,000 1,500 Climbing Salt Lake Center
10:57AM 44.2136 -108.6356 147° Southeast 358 412 18,700 1,500 Climbing Salt Lake Center
10:58AM 44.1106 -108.5417 147° Southeast 367 422 20,200 1,260 Climbing Salt Lake Center
10:59AM 44.0228 -108.4611 147° Southeast 376 433 21,400 1,320 Climbing Salt Lake Center
11:00AM 43.9350 -108.3797 146° Southeast 380 437 23,000 1,200 Climbing Salt Lake Center
11:01AM 43.8464 -108.3014 147° Southeast 380 437 23,900 960 Climbing Salt Lake Center
11:02AM 43.7581 -108.2208 147° Southeast 383 441 25,000 960 Climbing Salt Lake Center
11:03AM 43.6494 -108.1253 148° Southeast 386 444 26,000 780 Climbing Salt Lake Center
11:04AM 43.5600 -108.0453 147° Southeast 386 444 26,700 900 Climbing Salt Lake Center
11:05AM 43.4697 -107.9628 146° Southeast 389 448 27,900 960 Climbing Salt Lake Center
11:06AM 43.3817 -107.8858 148° Southeast 380 437 28,800 660 Climbing Salt Lake Center
11:07AM 43.2917 -107.8047 147° Southeast 385 443 29,300 720 Climbing Salt Lake Center
11:08AM 43.2017 -107.7256 147° Southeast 385 443 30,400 780 Climbing Salt Lake Center
11:09AM 43.0950 -107.6314 147° Southeast 383 441 31,000 240 Climbing Salt Lake Center
11:10AM 43.0025 -107.5531 148° Southeast 388 447 31,000  Level Salt Lake Center
11:11AM 42.9117 -107.4725 147° Southeast 403 464 31,000  Level Salt Lake Center
11:12AM 42.8011 -107.3772 148° Southeast 416 479 31,000  Level Salt Lake Center
11:13AM 42.7375 -107.3222 148° Southeast 423 487 31,000  Level Denver Center
11:14AM 42.6403 -107.2389 148° Southeast 428 493 31,000  Level Denver Center
11:15AM 42.5272 -107.1406 147° Southeast 430 495 31,000  Level Denver Center
11:16AM 42.4286 -107.0569 148° Southeast 434 499 31,000  Level Denver Center
11:17AM 42.3181 -106.9561 146° Southeast 429 494 31,000  Level Denver Center
11:18AM 42.2228 -106.8700 146° Southeast 428 493 31,000  Level Denver Center
11:19AM 42.1117 -106.7694 146° Southeast 430 495 31,000  Level Denver Center
11:20AM 42.0183 -106.6836 146° Southeast 426 490 31,000  Level Denver Center
11:21AM 41.9094 -106.5867 146° Southeast 421 484 31,000  Level Denver Center
11:22AM 41.8194 -106.5053 146° Southeast 420 483 31,000  Level Denver Center
11:23AM 41.7094 -106.4083 147° Southeast 422 486 31,000  Level Denver Center
11:24AM 41.6150 -106.3242 146° Southeast 425 489 31,000  Level Denver Center
11:25AM 41.5075 -106.2289 146° Southeast 419 482 31,000  Level Denver Center
11:26AM 41.4156 -106.1475 146° Southeast 416 479 31,000  Level Denver Center
11:27AM 41.3069 -106.0525 147° Southeast 418 481 31,000  Level Denver Center
11:28AM 41.2136 -105.9711 147° Southeast 419 482 31,000  Level Denver Center
11:29AM 41.1053 -105.8758 146° Southeast 420 483 31,000 -180 Level Denver Center
11:30AM 41.0111 -105.7931 146° Southeast 415 478 30,700 -1,440 Descending Denver Center
11:32AM 40.9164 -105.7122 147° Southeast 408 470 28,100 -2,520 Descending Denver Center
11:33AM 40.8281 -105.6342 146° Southeast 392 451 25,600 -2,280 Descending Denver Center
11:34AM 40.7431 -105.5642 148° Southeast 370 426 23,400 -2,160 Descending Denver Center
11:35AM 40.6606 -105.4914 146° Southeast 360 414 21,200 -2,160 Descending Denver Center
11:36AM 40.5747 -105.3875 137° Southeast 359 413 19,000 -1,860 Descending Denver Center
11:37AM 40.5217 -105.2883 125° Southeast 340 391 17,400 -1,560 Descending Denver Center
11:38AM 40.4736 -105.1864 122° Southeast 317 365 15,800 -1,500 Descending Denver Center
11:39AM 40.4219 -105.0933 126° Southeast 314 361 14,300 -1,380 Descending Denver Center
11:40AM 40.3694 -104.9994 126° Southeast 299 344 13,000 -960 Descending Denver Center
11:41AM 40.3203 -104.9164 128° Southeast 291 335 12,400 -780 Descending Denver Center
11:42AM 40.2650 -104.8464 136° Southeast 275 316 11,400 -1,020 Descending Denver Center
11:43AM 40.2019 -104.8008 151° Southeast 242 278 10,300 -1,020 Descending Denver Center
11:44AM 40.1492 -104.7619 151° Southeast 222 255 9,400 -900 Descending Denver Center
11:45AM 40.0933 -104.7214 151° Southeast 215 247 8,500 -720 Descending Denver Center
11:46AM 40.0400 -104.6956 160° South 209 241 8,000 -660 Descending Denver Center
11:47AM 39.9814 -104.6956 180° South 196 226 7,200 -900 Descending Denver Center
11:48AM 39.9381 -104.6964 181° South 161 185 6,200 -900 Descending Denver Center
11:49AM 39.8961 -104.6958 179° South 147 169 5,400 -780 Descending Denver Center